Hauptseite
METAR-TAF:

METAR-TAF

Flughäfen :

Fairbanks International Airport

Fairbanks, Alaska, Vereinigte Staaten

Breite: 64-48-14N, Länge: 147-52-34W, Höhe: 132 m

Beobachtung

Neuester Wetterbericht von vor 52 Minuten, um 11:53 UTC
Wind 7 kt aus Nord
Temperatur 0°C
Luftfeuchtigkeit 59%
Luftdruck 1024 hPa
Sichtweite: 16.1 km
Leicht bewölkt in der Höhe von 7000 ft
Leicht bewölkt in der Höhe von 10000 ft

METAR: PAFA 261153Z 35007KT 10SM FEW070 FEW100 00/M07 A3024 RMK AO2 SLP248 T00001072 10044 20000 51009 VISNO NE

Zeit: 04:45 (12:45 UTC)

Prognose

Neuester Wetterbericht von vor 1 Stunde und 5 Minuten, um 11:40 UTC
Gültige Prognose vom 26 um 12 UTC bis 27 um 18 UTC
Wind 10 kt aus Nord
Sichtweite: 10 km
Leicht bewölkt in der Höhe von 6000 ft

TAF: PAFA 261140Z 2612/2718 01010KT P6SM FEW060

Wetterbeobachtungen und Prognosen von mehr als 4000 Flughäfen (METAR und TAF Bericht).

Die verfügbaren Stationen werden durch gelbe und rote Markierungen auf der Karte dargestellt.

Führen Sie die Maus auf sie, um den Namen der Station zu sehen.

Darauf klicken, um die Beobachtung von Wetterbeobachtungen und Prognosen zu sehen.

Um die Karte zu ändern : klicken Sie auf den grünen Tasten mit einem schwarzen Kreuz Zum Vergrößern, auf den grünen Button mit einem Gedankenstrich zu verkleinern, oder auf die grünen Pfeile für benachbarte Karten.


METAR-TAF: